createdAt,value
2023-05-24T00:01:58.779Z,2.53
2023-05-24T00:05:01.974Z,2.60
2023-05-24T00:08:04.849Z,2.47
2023-05-24T00:11:08.713Z,2.17
2023-05-24T00:14:11.345Z,2.30
2023-05-24T00:17:14.049Z,2.83
2023-05-24T00:20:17.213Z,2.45
2023-05-24T00:23:19.900Z,2.42
2023-05-24T00:26:23.793Z,2.75
2023-05-24T00:29:26.320Z,3.10
2023-05-24T00:32:28.985Z,2.05
2023-05-24T00:35:31.600Z,2.40
2023-05-24T00:38:34.389Z,2.15
2023-05-24T00:41:38.335Z,2.08
2023-05-24T00:44:41.018Z,2.40
2023-05-24T00:47:43.788Z,2.22
2023-05-24T00:50:46.350Z,2.70
2023-05-24T00:53:49.893Z,1.95
2023-05-24T00:56:54.716Z,2.20
2023-05-24T00:59:57.819Z,2.50
2023-05-24T01:03:01.155Z,2.55
2023-05-24T01:09:14.973Z,2.95
2023-05-24T01:12:24.343Z,2.43
2023-05-24T01:15:35.118Z,2.80
2023-05-24T01:18:41.112Z,2.20
2023-05-24T01:21:51.764Z,3.20
2023-05-24T01:25:02.239Z,2.50
2023-05-24T01:28:06.209Z,2.83
2023-05-24T01:31:09.009Z,2.30
2023-05-24T01:34:12.632Z,2.85
2023-05-24T01:37:15.412Z,2.87
2023-05-24T01:40:18.207Z,2.50
2023-05-24T01:43:29.576Z,3.00
2023-05-24T01:46:37.117Z,2.87
2023-05-24T01:49:43.864Z,3.03
2023-05-24T01:52:47.817Z,2.40
2023-05-24T01:55:51.817Z,2.70
2023-05-24T01:58:55.970Z,2.10
2023-05-24T02:01:58.984Z,3.30
2023-05-24T02:05:01.842Z,2.40
2023-05-24T02:08:04.552Z,2.47
2023-05-24T02:11:07.489Z,2.67
2023-05-24T02:14:11.641Z,2.28
2023-05-24T02:17:14.524Z,3.10
2023-05-24T02:20:18.044Z,2.70
2023-05-24T02:23:20.703Z,2.97
2023-05-24T02:26:23.344Z,2.47
2023-05-24T02:29:27.436Z,2.75
2023-05-24T02:32:30.038Z,2.33
2023-05-24T02:35:33.583Z,3.00
2023-05-24T02:41:39.822Z,2.28
2023-05-24T02:44:47.630Z,2.45
2023-05-24T02:47:50.647Z,2.90
2023-05-24T02:50:53.360Z,2.83
2023-05-24T02:53:56.185Z,2.40
2023-05-24T02:56:58.926Z,4.00
2023-05-24T03:00:03.275Z,2.85
2023-05-24T03:03:06.881Z,2.93
2023-05-24T03:06:09.687Z,3.13
2023-05-24T03:09:12.401Z,3.10
2023-05-24T03:12:15.096Z,3.17
2023-05-24T03:15:19.161Z,3.25
2023-05-24T03:18:21.730Z,2.30
2023-05-24T03:21:25.320Z,3.42
2023-05-24T03:24:28.037Z,3.93
2023-05-24T03:27:30.634Z,3.22
2023-05-24T03:30:34.983Z,3.50
2023-05-24T03:33:37.576Z,2.83
2023-05-24T03:36:40.265Z,3.08
2023-05-24T03:39:42.954Z,2.75
2023-05-24T03:42:45.568Z,3.15
2023-05-24T03:45:49.601Z,3.50
2023-05-24T03:48:52.336Z,3.27
2023-05-24T03:51:55.050Z,3.88
2023-05-24T03:54:57.654Z,3.17
2023-05-24T03:58:00.164Z,3.27
2023-05-24T04:01:04.281Z,2.90
2023-05-24T04:04:06.939Z,2.63
2023-05-24T04:07:11.925Z,2.80
2023-05-24T04:10:14.513Z,3.80
2023-05-24T04:13:17.251Z,2.83
2023-05-24T04:16:21.228Z,3.88
2023-05-24T04:19:23.840Z,3.43
2023-05-24T04:22:26.450Z,3.10
2023-05-24T04:25:29.598Z,2.83
2023-05-24T04:28:33.271Z,2.78
2023-05-24T04:31:37.363Z,3.17
2023-05-24T04:34:42.589Z,3.57
2023-05-24T04:37:45.165Z,3.13
2023-05-24T04:40:48.008Z,3.00
2023-05-24T04:43:50.560Z,3.33
2023-05-24T04:46:54.564Z,3.38
2023-05-24T04:49:57.292Z,2.87
2023-05-24T04:52:59.962Z,3.88
2023-05-24T04:56:02.663Z,3.08
2023-05-24T04:59:05.779Z,3.15
2023-05-24T05:02:09.808Z,3.40
2023-05-24T05:05:12.769Z,3.00
2023-05-24T05:08:15.414Z,3.55
2023-05-24T05:11:18.679Z,3.55
2023-05-24T05:14:21.460Z,3.33
2023-05-24T05:17:25.545Z,3.92
2023-05-24T05:20:28.344Z,3.47
2023-05-24T05:23:31.051Z,3.28
2023-05-24T05:26:33.615Z,3.45
2023-05-24T05:29:36.162Z,2.87
2023-05-24T05:32:40.360Z,3.10
2023-05-24T05:35:43.291Z,2.90
2023-05-24T05:38:46.498Z,3.20
2023-05-24T05:41:49.379Z,4.55
2023-05-24T05:44:52.625Z,4.97
2023-05-24T05:47:56.743Z,3.67
2023-05-24T05:50:59.493Z,4.17
2023-05-24T05:54:02.067Z,2.90
2023-05-24T05:57:05.233Z,3.28
2023-05-24T06:00:09.171Z,3.63
2023-05-24T06:03:13.362Z,3.20
2023-05-24T06:06:16.158Z,3.03
2023-05-24T06:09:18.902Z,4.03
2023-05-24T06:12:21.523Z,3.38
2023-05-24T06:15:24.447Z,3.53
2023-05-24T06:18:30.429Z,3.17
2023-05-24T06:21:33.098Z,2.73
2023-05-24T06:24:35.657Z,3.55
2023-05-24T06:27:38.171Z,3.20
2023-05-24T06:30:41.250Z,2.77
2023-05-24T06:33:52.437Z,2.83
2023-05-24T06:37:05.548Z,3.03
2023-05-24T06:40:10.134Z,3.75
2023-05-24T06:43:12.888Z,4.00
2023-05-24T06:46:15.797Z,4.00
2023-05-24T06:49:19.741Z,4.93
2023-05-24T06:52:22.875Z,3.77
2023-05-24T06:55:25.581Z,2.75
2023-05-24T06:58:28.132Z,3.85
2023-05-24T07:01:30.855Z,3.42
2023-05-24T07:04:34.919Z,3.78
2023-05-24T07:07:37.723Z,3.40
2023-05-24T07:10:40.608Z,2.65
2023-05-24T07:13:43.433Z,3.78
2023-05-24T07:16:46.889Z,2.67
2023-05-24T07:19:51.662Z,3.00
2023-05-24T07:22:54.629Z,3.53
2023-05-24T07:25:57.278Z,2.55
2023-05-24T07:29:00.024Z,4.05
2023-05-24T07:32:02.874Z,2.83
2023-05-24T07:35:08.055Z,3.28
2023-05-24T07:38:11.728Z,3.27
2023-05-24T07:41:14.869Z,3.70
2023-05-24T07:44:18.318Z,6.55
2023-05-24T07:50:25.256Z,3.23
2023-05-24T07:53:28.042Z,2.90
2023-05-24T07:56:30.540Z,3.50
2023-05-24T07:59:33.205Z,3.20
2023-05-24T08:02:36.125Z,3.38
2023-05-24T08:05:40.442Z,2.55
2023-05-24T08:08:43.278Z,3.13
2023-05-24T08:11:45.914Z,2.75
2023-05-24T08:14:48.499Z,4.38
2023-05-24T08:17:51.420Z,3.05
2023-05-24T08:20:55.341Z,3.20
2023-05-24T08:23:58.621Z,2.87
2023-05-24T08:27:01.301Z,3.58
2023-05-24T08:30:05.015Z,2.45
2023-05-24T08:36:12.154Z,3.63
2023-05-24T08:39:14.889Z,3.73
2023-05-24T08:42:17.951Z,3.72
2023-05-24T08:45:22.896Z,3.42
2023-05-24T08:48:26.767Z,2.97
2023-05-24T08:51:30.979Z,2.93
2023-05-24T08:54:34.575Z,2.97
2023-05-24T08:57:39.533Z,3.20
2023-05-24T09:00:42.232Z,3.67
2023-05-24T09:03:46.440Z,4.22
2023-05-24T09:06:51.052Z,3.87
2023-05-24T09:09:58.349Z,3.07
2023-05-24T09:13:04.033Z,2.93
2023-05-24T09:16:07.360Z,3.60
2023-05-24T09:19:09.878Z,3.50
2023-05-24T09:22:16.234Z,3.10
2023-05-24T09:25:20.303Z,3.53
2023-05-24T09:28:24.747Z,2.40
2023-05-24T09:31:33.999Z,3.00
2023-05-24T09:34:40.346Z,3.00
2023-05-24T09:37:45.488Z,3.30
2023-05-24T09:40:48.203Z,3.80
2023-05-24T09:43:51.047Z,3.15
2023-05-24T09:46:53.809Z,3.03
2023-05-24T09:49:56.546Z,3.42
2023-05-24T09:53:01.119Z,3.88
2023-05-24T09:56:05.125Z,4.07
2023-05-24T09:59:09.894Z,8.40
2023-05-24T10:02:13.142Z,3.40
2023-05-24T10:05:15.748Z,4.35
2023-05-24T10:08:20.306Z,3.60
2023-05-24T10:11:22.961Z,3.33
2023-05-24T10:14:26.746Z,3.95
2023-05-24T10:17:29.544Z,3.93
2023-05-24T10:20:32.550Z,3.17
2023-05-24T10:23:39.327Z,3.38
2023-05-24T10:26:42.567Z,3.53
2023-05-24T10:29:50.021Z,3.97
2023-05-24T10:32:53.723Z,4.03
2023-05-24T10:35:57.349Z,3.97
2023-05-24T10:39:01.751Z,4.07
2023-05-24T10:42:09.421Z,3.53
2023-05-24T10:45:33.486Z,4.17
2023-05-24T10:48:39.717Z,2.47
2023-05-24T10:51:42.401Z,3.80
2023-05-24T10:55:05.442Z,4.18
2023-05-24T10:58:08.527Z,3.47
2023-05-24T11:01:14.631Z,3.00
2023-05-24T11:04:18.217Z,4.40
2023-05-24T11:07:21.101Z,3.27
2023-05-24T11:10:32.702Z,3.92
2023-05-24T11:13:35.373Z,3.57
2023-05-24T11:16:40.381Z,4.88
2023-05-24T11:19:47.982Z,3.40
2023-05-24T11:22:51.878Z,3.40
2023-05-24T11:25:57.173Z,3.10
2023-05-24T11:29:04.794Z,3.47
2023-05-24T11:32:08.224Z,3.20
2023-05-24T11:35:11.670Z,3.10
2023-05-24T11:41:19.601Z,3.53
2023-05-24T11:44:22.888Z,2.80
2023-05-24T11:47:25.858Z,3.65
2023-05-24T11:50:28.819Z,3.40
2023-05-24T11:53:31.540Z,2.75
2023-05-24T11:56:35.757Z,2.75
2023-05-24T11:59:38.758Z,3.07
2023-05-24T12:02:42.339Z,3.53
2023-05-24T12:05:45.102Z,2.90
2023-05-24T12:08:47.857Z,2.33
2023-05-24T12:11:52.754Z,2.95
2023-05-24T12:14:56.647Z,2.47
2023-05-24T12:17:59.767Z,2.57
2023-05-24T12:21:02.897Z,2.30
2023-05-24T12:24:10.554Z,2.40
2023-05-24T12:27:14.647Z,2.93
2023-05-24T12:30:21.312Z,2.20
2023-05-24T12:33:24.884Z,3.07
2023-05-24T12:36:29.383Z,2.47
2023-05-24T12:39:34.352Z,2.60
2023-05-24T12:42:38.609Z,2.67
2023-05-24T12:45:41.403Z,2.83
2023-05-24T12:48:44.091Z,2.83
2023-05-24T12:51:49.116Z,2.65
2023-05-24T12:54:52.090Z,2.80
2023-05-24T12:57:56.465Z,3.05
2023-05-24T13:00:59.054Z,2.23
2023-05-24T13:04:01.765Z,5.78
2023-05-24T13:07:04.419Z,2.72
2023-05-24T13:10:08.101Z,2.35
2023-05-24T13:13:12.407Z,2.83
2023-05-24T13:16:15.133Z,2.50
2023-05-24T13:19:18.072Z,2.83
2023-05-24T13:22:21.270Z,2.33
2023-05-24T13:28:28.601Z,2.90
2023-05-24T13:31:31.667Z,3.00
2023-05-24T13:37:36.954Z,2.40
2023-05-24T13:40:41.877Z,2.97
2023-05-24T13:43:45.947Z,3.20
2023-05-24T13:46:48.614Z,2.27
2023-05-24T13:49:51.181Z,2.67
2023-05-24T13:52:53.831Z,2.60
2023-05-24T13:55:56.615Z,2.03
2023-05-24T13:59:00.914Z,2.25
2023-05-24T14:02:03.720Z,1.88
2023-05-24T14:05:24.903Z,2.10
2023-05-24T14:08:29.822Z,2.10
2023-05-24T14:11:32.622Z,2.83
2023-05-24T14:14:59.215Z,2.10
2023-05-24T14:18:00.827Z,2.00
2023-05-24T14:21:03.634Z,2.08
2023-05-24T14:24:06.467Z,2.03
2023-05-24T14:27:09.086Z,1.83
2023-05-24T14:30:13.949Z,2.20
2023-05-24T14:33:16.708Z,1.88
2023-05-24T14:36:19.735Z,1.70
2023-05-24T14:39:22.632Z,2.25
2023-05-24T14:42:25.211Z,1.80
2023-05-24T14:45:29.187Z,2.15
2023-05-24T14:48:31.815Z,2.00
2023-05-24T14:51:34.790Z,2.50
2023-05-24T14:54:37.680Z,2.00
2023-05-24T14:57:40.428Z,2.05
2023-05-24T15:00:45.131Z,2.08
2023-05-24T15:03:48.182Z,2.80
2023-05-24T15:06:50.964Z,2.00
2023-05-24T15:12:56.036Z,2.10
2023-05-24T15:16:00.715Z,2.42
2023-05-24T15:19:03.765Z,1.80
2023-05-24T15:22:07.267Z,2.20
2023-05-24T15:25:10.753Z,1.97
2023-05-24T15:28:15.827Z,2.35
2023-05-24T15:31:20.529Z,1.90
2023-05-24T15:34:23.862Z,2.15
2023-05-24T15:37:26.664Z,2.00
2023-05-24T15:40:29.209Z,1.90
2023-05-24T15:43:31.802Z,1.80
2023-05-24T15:46:36.426Z,1.92
2023-05-24T15:49:40.194Z,1.65
2023-05-24T15:52:42.789Z,1.67
2023-05-24T15:55:47.126Z,1.83
2023-05-24T15:58:49.836Z,2.05
2023-05-24T16:04:57.348Z,2.05
2023-05-24T16:08:00.389Z,1.52
2023-05-24T16:11:03.727Z,2.53
2023-05-24T16:14:06.555Z,2.23
2023-05-24T16:17:10.612Z,1.50
2023-05-24T16:20:13.277Z,2.30
2023-05-24T16:23:16.186Z,1.90
2023-05-24T16:26:18.720Z,1.90
2023-05-24T16:29:21.453Z,1.75
2023-05-24T16:32:25.360Z,2.05
2023-05-24T16:35:27.926Z,2.50
2023-05-24T16:38:30.493Z,2.03
2023-05-24T16:41:37.340Z,1.90
2023-05-24T16:44:39.962Z,2.37
2023-05-24T16:47:44.022Z,2.13
2023-05-24T16:50:46.736Z,1.70
2023-05-24T16:53:49.345Z,1.80
2023-05-24T16:56:54.460Z,1.90
2023-05-24T16:59:58.099Z,1.90
2023-05-24T17:03:02.478Z,1.93
2023-05-24T17:06:05.856Z,1.97
2023-05-24T17:12:11.076Z,2.20
2023-05-24T17:15:13.799Z,1.55
2023-05-24T17:18:17.704Z,1.88
2023-05-24T17:21:21.161Z,2.27
2023-05-24T17:24:27.471Z,1.70
2023-05-24T17:27:30.004Z,1.90
2023-05-24T17:30:33.272Z,1.88
2023-05-24T17:36:39.950Z,1.93
2023-05-24T17:39:42.493Z,1.40
2023-05-24T17:42:45.385Z,1.80
2023-05-24T17:45:48.038Z,1.48
2023-05-24T17:48:52.145Z,2.55
2023-05-24T17:51:55.067Z,1.70
2023-05-24T17:54:57.730Z,1.92
2023-05-24T17:58:00.479Z,1.60
2023-05-24T18:01:05.049Z,1.52
2023-05-24T18:04:09.044Z,1.90
2023-05-24T18:07:11.589Z,1.50
2023-05-24T18:10:14.150Z,1.60
2023-05-24T18:13:17.004Z,1.60
2023-05-24T18:16:19.679Z,1.80
2023-05-24T18:19:23.586Z,1.58
2023-05-24T18:22:26.319Z,2.17
2023-05-24T18:25:29.102Z,1.80
2023-05-24T18:28:31.845Z,1.92
2023-05-24T18:31:34.633Z,1.70
2023-05-24T18:34:38.642Z,1.38
2023-05-24T18:37:41.296Z,1.70
2023-05-24T18:40:44.184Z,1.75
2023-05-24T18:43:46.934Z,1.13
2023-05-24T18:46:50.083Z,1.88
2023-05-24T18:49:54.068Z,1.33
2023-05-24T18:52:56.608Z,1.37
2023-05-24T18:56:00.017Z,1.70
2023-05-24T18:59:02.692Z,1.60
2023-05-24T19:02:06.246Z,1.52
2023-05-24T19:05:11.092Z,1.97
2023-05-24T19:08:13.699Z,1.73
2023-05-24T19:11:16.431Z,1.88
2023-05-24T19:14:20.529Z,1.58
2023-05-24T19:17:24.355Z,2.17
2023-05-24T19:20:28.631Z,2.17
2023-05-24T19:23:31.350Z,3.03
2023-05-24T19:26:33.860Z,2.30
2023-05-24T19:29:39.812Z,1.80
2023-05-24T19:32:43.046Z,2.37
2023-05-24T19:35:47.084Z,2.58
2023-05-24T19:38:51.129Z,2.13
2023-05-24T19:41:53.912Z,1.60
2023-05-24T19:44:56.556Z,1.83
2023-05-24T19:47:59.303Z,1.55
2023-05-24T19:51:03.499Z,1.83
2023-05-24T19:54:06.068Z,1.50
2023-05-24T19:57:08.837Z,1.45
2023-05-24T20:00:13.851Z,1.63
2023-05-24T20:03:16.726Z,1.60
2023-05-24T20:06:20.783Z,1.77
2023-05-24T20:09:23.431Z,1.67
2023-05-24T20:12:26.062Z,1.90
2023-05-24T20:15:29.398Z,2.10
2023-05-24T20:18:35.001Z,1.75
2023-05-24T20:21:38.978Z,2.10
2023-05-24T20:24:41.551Z,2.20
2023-05-24T20:27:44.900Z,2.23
2023-05-24T20:30:47.567Z,1.90
2023-05-24T20:33:51.490Z,2.05
2023-05-24T20:36:55.636Z,2.20
2023-05-24T20:39:58.317Z,1.67
2023-05-24T20:43:01.133Z,2.00
2023-05-24T20:46:03.928Z,2.10
2023-05-24T20:49:06.582Z,1.85
2023-05-24T20:52:10.527Z,1.87
2023-05-24T20:55:13.035Z,1.80
2023-05-24T20:58:17.079Z,2.10
2023-05-24T21:01:19.996Z,1.77
2023-05-24T21:04:22.669Z,1.80
2023-05-24T21:07:26.642Z,1.80
2023-05-24T21:10:29.420Z,2.10
2023-05-24T21:13:32.106Z,1.63
2023-05-24T21:16:34.966Z,2.25
2023-05-24T21:19:37.863Z,2.25
2023-05-24T21:22:42.051Z,1.85
2023-05-24T21:25:44.825Z,1.90
2023-05-24T21:28:47.623Z,2.30
2023-05-24T21:31:50.210Z,1.90
2023-05-24T21:34:52.852Z,1.80
2023-05-24T21:37:57.173Z,2.00
2023-05-24T21:40:59.784Z,1.70
2023-05-24T21:44:02.333Z,1.93
2023-05-24T21:47:05.326Z,2.03
2023-05-24T21:50:08.671Z,1.50
2023-05-24T21:53:12.664Z,1.92
2023-05-24T21:56:15.440Z,2.87
2023-05-24T21:59:18.209Z,2.10
2023-05-24T22:02:21.515Z,1.60
2023-05-24T22:05:26.202Z,1.63
2023-05-24T22:08:31.873Z,1.73
2023-05-24T22:11:35.089Z,1.83
2023-05-24T22:14:38.127Z,2.35
2023-05-24T22:17:41.916Z,2.22
2023-05-24T22:20:44.967Z,2.23
2023-05-24T22:23:48.948Z,2.67
2023-05-24T22:26:52.457Z,2.50
2023-05-24T22:29:55.658Z,2.40
2023-05-24T22:32:58.250Z,3.00
2023-05-24T22:36:02.017Z,2.38
2023-05-24T22:39:07.292Z,2.30
2023-05-24T22:42:09.879Z,2.03
2023-05-24T22:45:13.998Z,1.83
2023-05-24T22:48:17.930Z,2.40
2023-05-24T22:51:20.764Z,2.10
2023-05-24T22:54:24.750Z,2.42
2023-05-24T22:57:27.570Z,2.30
2023-05-24T23:00:30.210Z,2.08
2023-05-24T23:03:32.872Z,1.95
2023-05-24T23:06:37.215Z,1.98
2023-05-24T23:09:41.515Z,1.90
2023-05-24T23:12:44.552Z,2.70
2023-05-24T23:15:48.464Z,2.05
2023-05-24T23:18:51.219Z,3.23
2023-05-24T23:21:55.351Z,2.15
2023-05-24T23:24:59.713Z,2.67
2023-05-24T23:28:02.604Z,1.87
2023-05-24T23:31:05.323Z,2.28
2023-05-24T23:34:08.295Z,2.55
2023-05-24T23:37:10.852Z,1.92
2023-05-24T23:40:15.155Z,2.20
2023-05-24T23:43:17.798Z,2.07
2023-05-24T23:46:20.656Z,2.27
2023-05-24T23:49:23.315Z,3.83
2023-05-24T23:52:26.044Z,3.10
2023-05-24T23:55:30.065Z,2.20
2023-05-24T23:58:33.508Z,2.30
